createdAt,value
2019-04-27T00:04:55.787Z,64.1
2019-04-27T00:09:53.489Z,64.1
2019-04-27T00:14:56.010Z,65.1
2019-04-27T00:19:50.959Z,64.6
2019-04-27T00:24:50.782Z,65
2019-04-27T00:29:51.029Z,64.4
2019-04-27T00:34:50.955Z,65
2019-04-27T00:39:50.782Z,65
2019-04-27T00:44:51.024Z,65.1
2019-04-27T00:49:50.820Z,64.4
2019-04-27T00:54:50.991Z,65
2019-04-27T00:59:51.021Z,64.7
2019-04-27T01:04:50.960Z,64.8
2019-04-27T01:09:50.821Z,64
2019-04-27T01:14:51.030Z,65.1
2019-04-27T01:19:50.970Z,65.1
2019-04-27T01:24:50.995Z,64.9
2019-04-27T01:29:50.840Z,64.5
2019-04-27T01:34:50.974Z,65.4
2019-04-27T01:39:51.033Z,64.6
2019-04-27T01:44:51.555Z,64.1
2019-04-27T01:49:51.036Z,65.5
2019-04-27T01:54:51.041Z,64.4
2019-04-27T01:59:50.866Z,64.4
2019-04-27T02:04:50.845Z,65.5
2019-04-27T02:09:50.993Z,66.1
2019-04-27T02:14:51.041Z,65.8
2019-04-27T02:19:51.065Z,66.4
2019-04-27T02:24:50.994Z,66.6
2019-04-27T02:29:50.864Z,66.7
2019-04-27T02:34:51.048Z,67.1
2019-04-27T02:39:50.994Z,66.9
2019-04-27T02:44:51.035Z,68.3
2019-04-27T02:49:51.422Z,67.7
2019-04-27T02:54:51.150Z,67.6
2019-04-27T02:59:51.036Z,68
2019-04-27T03:04:51.070Z,68.2
2019-04-27T03:09:51.656Z,68.9
2019-04-27T03:14:51.067Z,68.1
2019-04-27T03:19:52.740Z,68.1
2019-04-27T03:24:51.105Z,67.4
2019-04-27T03:29:51.014Z,68.1
2019-04-27T03:34:52.960Z,67.6
2019-04-27T03:39:51.093Z,68.8
2019-04-27T03:44:51.012Z,67.8
2019-04-27T03:49:51.198Z,68.6
2019-04-27T03:54:50.998Z,68
2019-04-27T03:59:50.897Z,67.2
2019-04-27T04:04:50.949Z,68.4
2019-04-27T04:09:50.902Z,68.7
2019-04-27T04:14:51.131Z,69.4
2019-04-27T04:20:01.110Z,69.8
2019-04-27T04:24:51.093Z,70
2019-04-27T04:29:51.106Z,69.5
2019-04-27T04:34:50.889Z,69.6
2019-04-27T04:39:53.806Z,69
2019-04-27T04:44:50.855Z,69.4
2019-04-27T04:50:14.031Z,68.4
2019-04-27T04:54:51.078Z,69.2
2019-04-27T04:59:51.787Z,68.2
2019-04-27T05:04:50.921Z,67.3
2019-04-27T05:09:51.092Z,67.1
2019-04-27T05:14:50.908Z,67.2
2019-04-27T05:19:51.164Z,66.9
2019-04-27T05:24:51.066Z,66.8
2019-04-27T05:29:51.099Z,65.8
2019-04-27T05:34:51.184Z,65.2
2019-04-27T05:39:50.962Z,65.9
2019-04-27T05:44:51.059Z,65.2
2019-04-27T05:49:50.957Z,65.6
2019-04-27T05:54:50.925Z,64.2
2019-04-27T05:59:50.924Z,64.4
2019-04-27T06:04:51.071Z,64.1
2019-04-27T06:09:50.944Z,63.5
2019-04-27T06:14:51.118Z,63.8
2019-04-27T06:19:50.969Z,63.7
2019-04-27T06:24:54.709Z,64.1
2019-04-27T06:29:51.123Z,63.3
2019-04-27T06:34:51.163Z,63.8
2019-04-27T06:39:50.966Z,63.2
2019-04-27T06:44:50.967Z,61.9
2019-04-27T06:49:51.133Z,61.9
2019-04-27T06:54:50.976Z,62
2019-04-27T06:59:50.972Z,61.7
2019-04-27T07:04:52.174Z,61.4
2019-04-27T07:09:51.075Z,61.4
2019-04-27T07:14:55.237Z,60.8
2019-04-27T07:19:51.131Z,61.2
2019-04-27T07:24:51.193Z,61.3
2019-04-27T07:29:53.908Z,60.8
2019-04-27T07:34:50.998Z,61
2019-04-27T07:39:51.009Z,61.5
2019-04-27T07:44:51.217Z,61.2
2019-04-27T07:49:51.086Z,60.7
2019-04-27T07:54:51.198Z,61.4
2019-04-27T07:59:51.204Z,61.1
2019-04-27T08:04:51.272Z,61.2
2019-04-27T08:09:50.999Z,60.1
2019-04-27T08:14:51.037Z,60
2019-04-27T08:19:51.009Z,59.2
2019-04-27T08:24:51.170Z,57.9
2019-04-27T08:29:51.017Z,57.8
2019-04-27T08:34:51.138Z,57.6
2019-04-27T08:39:51.327Z,57.1
2019-04-27T08:44:51.172Z,57
2019-04-27T08:49:51.014Z,55.9
2019-04-27T08:54:51.440Z,57.1
2019-04-27T08:59:51.424Z,57.4
2019-04-27T09:04:50.990Z,58.2
2019-04-27T09:09:51.170Z,58.5
2019-04-27T09:14:51.036Z,57.4
2019-04-27T09:19:51.071Z,57.7
2019-04-27T09:24:51.284Z,58.1
2019-04-27T09:29:51.055Z,57.7
2019-04-27T09:34:51.039Z,57.6
2019-04-27T09:39:51.278Z,58.6
2019-04-27T09:44:51.209Z,57.7
2019-04-27T09:49:51.284Z,58.8
2019-04-27T09:54:51.040Z,58.9
2019-04-27T09:59:51.296Z,59.4
2019-04-27T10:04:51.039Z,59.4
2019-04-27T10:09:51.321Z,59.8
2019-04-27T10:14:51.278Z,60
2019-04-27T10:19:51.244Z,60.1
2019-04-27T10:24:51.108Z,60.9
2019-04-27T10:29:51.211Z,61.7
2019-04-27T10:34:51.252Z,61.5
2019-04-27T10:39:51.264Z,62.4
2019-04-27T10:44:51.202Z,61.7
2019-04-27T10:49:51.246Z,62.3
2019-04-27T10:54:51.101Z,62.4
2019-04-27T10:59:51.120Z,64.3
2019-04-27T11:04:51.094Z,64.2
2019-04-27T11:09:51.100Z,64.9
2019-04-27T11:14:51.101Z,63.9
2019-04-27T11:19:51.096Z,62.6
2019-04-27T11:24:51.103Z,62.1
2019-04-27T11:29:51.107Z,61.6
2019-04-27T11:34:51.099Z,60.6
2019-04-27T11:39:51.264Z,60.7
2019-04-27T11:44:51.145Z,61.6
2019-04-27T11:49:51.128Z,61.2
2019-04-27T11:54:51.379Z,60.7
2019-04-27T11:59:51.271Z,61.2
2019-04-27T12:04:51.363Z,60.9
2019-04-27T12:09:51.257Z,61.5
2019-04-27T12:14:52.219Z,61.1
2019-04-27T12:19:51.343Z,61.5
2019-04-27T12:24:51.538Z,60.4
2019-04-27T12:29:51.415Z,60
2019-04-27T12:34:51.380Z,60.4
2019-04-27T12:39:51.136Z,60
2019-04-27T12:44:51.297Z,59.2
2019-04-27T12:49:51.363Z,58.3
2019-04-27T12:54:51.095Z,57.4
2019-04-27T12:59:51.127Z,56.1
2019-04-27T13:04:51.364Z,56.6
2019-04-27T13:09:51.392Z,55.2
2019-04-27T13:14:51.141Z,54.2
2019-04-27T13:19:51.359Z,52.6
2019-04-27T13:24:51.304Z,53.5
2019-04-27T13:29:51.454Z,53.3
2019-04-27T13:34:51.171Z,52.6
2019-04-27T13:40:09.349Z,51.7
2019-04-27T13:44:51.290Z,52.8
2019-04-27T13:49:51.351Z,49.7
2019-04-27T13:54:51.377Z,50.4
2019-04-27T13:59:51.990Z,50.8
2019-04-27T14:04:51.207Z,48.4
2019-04-27T14:09:51.187Z,47.3
2019-04-27T14:14:51.200Z,46.2
2019-04-27T14:19:51.211Z,46.5
2019-04-27T14:24:51.377Z,46.1
2019-04-27T14:29:51.216Z,45.4
2019-04-27T14:34:51.318Z,45.6
2019-04-27T14:39:51.384Z,47.3
2019-04-27T14:44:51.313Z,45.5
2019-04-27T14:49:51.218Z,47
2019-04-27T14:54:51.362Z,47.3
2019-04-27T14:59:51.223Z,46.7
2019-04-27T15:04:51.323Z,47.5
2019-04-27T15:09:57.540Z,47.8
2019-04-27T15:14:57.204Z,46.7
2019-04-27T15:19:53.893Z,47
2019-04-27T15:25:13.432Z,46.6
2019-04-27T15:29:51.394Z,47.3
2019-04-27T15:34:51.354Z,47.8
2019-04-27T15:39:51.332Z,48.1
2019-04-27T15:44:51.428Z,48.1
2019-04-27T15:49:54.882Z,48.4
2019-04-27T15:54:51.481Z,49.5
2019-04-27T15:59:51.235Z,49.2
2019-04-27T16:04:53.773Z,48.6
2019-04-27T16:09:59.018Z,49.1
2019-04-27T16:14:51.540Z,47.8
2019-04-27T16:19:51.438Z,47.6
2019-04-27T16:24:54.679Z,46.3
2019-04-27T16:29:51.508Z,46.5
2019-04-27T16:34:51.245Z,47.4
2019-04-27T16:39:51.282Z,47.6
2019-04-27T16:44:53.393Z,47.8
2019-04-27T16:49:51.294Z,48.6
2019-04-27T16:55:00.227Z,48.4
2019-04-27T17:00:01.086Z,48.2
2019-04-27T17:04:55.821Z,48.6
2019-04-27T17:09:51.473Z,48.7
2019-04-27T17:14:51.618Z,48.6
2019-04-27T17:19:52.247Z,49.6
2019-04-27T17:24:51.343Z,47.5
2019-04-27T17:30:01.508Z,42.6
2019-04-27T17:34:51.442Z,42
2019-04-27T17:39:57.982Z,45
2019-04-27T17:44:57.571Z,47.2
2019-04-27T17:49:51.558Z,48.8
2019-04-27T17:54:51.471Z,49.3
2019-04-27T18:00:03.050Z,51.2
2019-04-27T18:04:51.556Z,52.1
2019-04-27T18:09:51.473Z,52.3
2019-04-27T18:14:51.502Z,53.6
2019-04-27T18:19:51.318Z,53.7
2019-04-27T18:24:51.454Z,54.2
2019-04-27T18:29:51.330Z,55.9
2019-04-27T18:34:51.540Z,55.8
2019-04-27T18:39:55.316Z,57.1
2019-04-27T18:44:51.560Z,57.2
2019-04-27T18:49:51.901Z,58.3
2019-04-27T18:54:51.364Z,57.8
2019-04-27T18:59:51.486Z,58.5
2019-04-27T19:04:51.443Z,60.2
2019-04-27T19:09:51.366Z,59.6
2019-04-27T19:14:51.699Z,60.8
2019-04-27T19:19:51.572Z,60.9
2019-04-27T19:24:51.419Z,61.7
2019-04-27T19:29:51.526Z,62.6
2019-04-27T19:34:51.529Z,62.9
2019-04-27T19:39:51.496Z,63.3
2019-04-27T19:44:51.623Z,63.2
2019-04-27T19:49:51.351Z,64.3
2019-04-27T19:54:51.385Z,63.6
2019-04-27T19:59:51.382Z,65.2
2019-04-27T20:04:51.386Z,66.6
2019-04-27T20:09:51.576Z,66.6
2019-04-27T20:14:51.604Z,68.9
2019-04-27T20:19:51.949Z,69.4
2019-04-27T20:24:51.628Z,69.9
2019-04-27T20:29:51.606Z,69.9
2019-04-27T20:34:51.818Z,70
2019-04-27T20:39:51.822Z,71.1
2019-04-27T20:44:51.974Z,70.8
2019-04-27T20:49:51.674Z,72.8
2019-04-27T20:54:51.736Z,74.2
2019-04-27T20:59:52.575Z,72.9
2019-04-27T21:04:51.532Z,72.1
2019-04-27T21:09:51.561Z,73
2019-04-27T21:14:52.269Z,73
2019-04-27T21:19:51.781Z,74.3
2019-04-27T21:24:51.715Z,73.7
2019-04-27T21:29:53.803Z,74.3
2019-04-27T21:34:51.896Z,74.2
2019-04-27T21:39:53.453Z,75.9
2019-04-27T21:44:53.303Z,77.2
2019-04-27T21:49:52.000Z,74.1
2019-04-27T21:54:51.552Z,74.6
2019-04-27T21:59:51.588Z,73.6
2019-04-27T22:04:52.038Z,74.3
2019-04-27T22:09:51.965Z,74.4
2019-04-27T22:14:53.399Z,75.4
2019-04-27T22:19:51.680Z,75.3
2019-04-27T22:24:51.677Z,76
2019-04-27T22:29:52.987Z,75.7
2019-04-27T22:34:51.638Z,77.9
2019-04-27T22:39:53.047Z,77.8
2019-04-27T22:44:51.600Z,77.9
2019-04-27T22:49:51.475Z,78.5
2019-04-27T22:54:51.646Z,78
2019-04-27T22:59:51.640Z,78.4
2019-04-27T23:04:51.929Z,74.9
2019-04-27T23:09:52.224Z,74.5
2019-04-27T23:14:51.722Z,75.1
2019-04-27T23:19:51.632Z,69.6
2019-04-27T23:24:52.061Z,67.7
2019-04-27T23:29:51.865Z,67.5
2019-04-27T23:34:51.786Z,66.7
2019-04-27T23:39:51.665Z,65.8
2019-04-27T23:44:51.482Z,65.2
2019-04-27T23:49:51.629Z,65.7
2019-04-27T23:54:51.656Z,67.2
2019-04-27T23:59:51.856Z,66.8
